KDEH/DEH METAR and TAF weather

Enter ICAO airport designator
Station Type Date Time Source
KDEH METAR 2021/03/05 18:55 UTC NOAA

KDEH 051855Z AUTO 00000KT 10SM OVC070 03/M08 A3037 RMK AO2


Station Type Date Time Source
KDEH Decoded METAR 2021/03/05 18:55 UTC NOAA

Decorah, IA, United States (KDEH) 43-17N 091-44W
Mar 05, 2021 - 01:55 PM EST / 2021.03.05 1855 UTC
Wind: Calm:0
Visibility: 10 mile(s):0
Sky conditions: overcast
Temperature: 37 F (3 C)
Dew Point: 17 F (-8 C)
Relative Humidity: 44%
Pressure (altimeter): 30.37 in. Hg (1028 hPa)
ob: KDEH 051855Z AUTO 00000KT 10SM OVC070 03/M08 A3037 RMK AO2
cycle: 19

Station Type Date Time Source
KDEH TAF UTC NOAA

Error!

Example: see airport list